Terminal Aerodrome Forecast
Issued by NWS

Home | Current Version | Previous Version | Text Only | Print | Product List | Glossary On
Versions: 1 2 3 4 5 6 7 8 9 10 11 12 13 14 15 16 17 18 19
000
FTUS42 KTAE 200800 AAA
TAFECP
TAF AMD
KECP 200859Z 2009/2106 35006KT P6SM SCT025
      TEMPO 2009/2013 BKN025
     FM201300 05011KT P6SM SCT025 BKN040
     FM202100 05009KT P6SM SCT250=

USA.gov is the U.S. government's official web portal to all federal, state and local government web resources and services.